Time;durP1;ratioP1;P1;durP2;ratioP2;P2;SDS_P1;SDS_P2;PMS_P1;PMS_P2;Temp;Humidity;BMP_temperature;BMP_pressure;BME280_temperature;BME280_humidity;BME280_pressure;Samples;Min_cycle;Max_cycle;Signal;HPM_P1;HPM_P2
2023/05/04 00:02:04;;;;;;;2.30;1.50;;;22.80;50.10;;;;;;5038374;28;20043;-71
2023/05/04 00:04:30;;;;;;;2.40;1.60;;;22.90;50.20;;;;;;5039349;28;20029;-71
2023/05/04 00:06:55;;;;;;;2.22;1.40;;;22.90;50.20;;;;;;5038391;28;20504;-71
2023/05/04 00:09:21;;;;;;;2.20;1.40;;;22.90;50.20;;;;;;5041339;28;20036;-71
2023/05/04 00:11:46;;;;;;;2.30;1.40;;;22.80;50.10;;;;;;5037527;28;20025;-71
2023/05/04 00:14:12;;;;;;;2.25;1.45;;;22.90;50.10;;;;;;5041175;28;20465;-71
2023/05/04 00:16:37;;;;;;;2.40;1.40;;;22.90;50.10;;;;;;5038017;28;20037;-71
2023/05/04 00:19:03;;;;;;;2.97;1.67;;;22.90;50.20;;;;;;5037431;28;20171;-71
2023/05/04 00:21:29;;;;;;;2.30;1.40;;;22.90;50.10;;;;;;5040303;28;20128;-70
2023/05/04 00:23:54;;;;;;;2.15;1.40;;;22.80;50.00;;;;;;5037897;28;20368;-71
2023/05/04 00:26:20;;;;;;;2.35;1.50;;;22.80;50.10;;;;;;5034330;28;20032;-70
2023/05/04 00:28:45;;;;;;;2.10;1.40;;;22.80;50.00;;;;;;5040047;28;20037;-71
2023/05/04 00:31:11;;;;;;;2.30;1.35;;;22.80;50.00;;;;;;5039391;28;20060;-71
2023/05/04 00:33:37;;;;;;;2.15;1.33;;;22.80;50.00;;;;;;5038032;28;20115;-71
2023/05/04 00:36:03;;;;;;;2.88;1.48;;;22.80;50.00;;;;;;5036464;28;20104;-71
2023/05/04 00:38:28;;;;;;;2.58;1.40;;;22.80;50.10;;;;;;5036309;28;20456;-71
2023/05/04 00:40:54;;;;;;;3.22;1.67;;;22.80;50.00;;;;;;5038378;28;20100;-71
2023/05/04 00:43:20;;;;;;;2.30;1.50;;;22.80;50.00;;;;;;5040394;28;20025;-71
2023/05/04 00:45:46;;;;;;;2.20;1.40;;;22.80;50.00;;;;;;5036602;28;20014;-71
2023/05/04 00:48:12;;;;;;;2.20;1.20;;;22.80;50.00;;;;;;5037657;28;20033;-69
2023/05/04 00:50:39;;;;;;;2.00;1.40;;;22.80;50.00;;;;;;5036975;28;20033;-71
2023/05/04 00:53:09;;;;;;;2.45;1.50;;;22.70;50.00;;;;;;5040027;28;20495;-71
2023/05/04 00:55:39;;;;;;;3.28;1.65;;;22.80;50.00;;;;;;5036738;28;20112;-70
2023/05/04 00:58:06;;;;;;;2.10;1.40;;;22.80;50.00;;;;;;5039300;28;20025;-71
2023/05/04 01:00:32;;;;;;;1.85;1.25;;;22.80;50.00;;;;;;5037590;28;20079;-71
2023/05/04 01:02:58;;;;;;;2.22;1.58;;;22.80;50.00;;;;;;5046555;28;20044;-71
2023/05/04 01:05:26;;;;;;;2.42;1.42;;;22.80;50.00;;;;;;5037896;28;20040;-70
2023/05/04 01:08:04;;;;;;;2.30;1.52;;;22.80;49.90;;;;;;5039882;28;20218;-70
2023/05/04 01:10:40;;;;;;;2.65;1.40;;;22.70;49.90;;;;;;5039853;28;20116;-71
2023/05/04 01:13:11;;;;;;;2.30;1.45;;;22.70;49.90;;;;;;5040020;28;20123;-71
2023/05/04 01:15:38;;;;;;;2.17;1.40;;;22.70;49.90;;;;;;5038133;28;20029;-71
2023/05/04 01:18:03;;;;;;;1.73;1.40;;;22.70;49.90;;;;;;5036495;28;20029;-71
2023/05/04 01:20:29;;;;;;;2.05;1.23;;;22.70;49.90;;;;;;5040270;28;20473;-71
2023/05/04 01:22:55;;;;;;;3.45;1.40;;;22.70;49.90;;;;;;5038183;28;20036;-71
2023/05/04 01:25:23;;;;;;;1.83;1.25;;;22.70;49.90;;;;;;5038026;28;20607;-70
2023/05/04 01:27:55;;;;;;;2.22;1.40;;;22.70;49.90;;;;;;5036356;28;20167;-71
2023/05/04 01:30:34;;;;;;;2.30;1.52;;;22.70;49.80;;;;;;5039030;28;20572;-71
2023/05/04 01:33:01;;;;;;;2.55;1.50;;;22.70;49.80;;;;;;5037137;28;20040;-71
2023/05/04 01:35:27;;;;;;;2.35;1.40;;;22.70;49.80;;;;;;5038702;28;20025;-71
2023/05/04 01:37:53;;;;;;;1.73;1.20;;;22.70;49.90;;;;;;5038954;28;20052;-71
2023/05/04 01:40:19;;;;;;;2.45;1.30;;;22.70;49.80;;;;;;5037861;28;20033;-72
2023/05/04 01:42:44;;;;;;;1.88;1.23;;;22.70;49.80;;;;;;5040769;28;20017;-70
2023/05/04 01:45:10;;;;;;;2.17;1.38;;;22.70;49.80;;;;;;5037532;28;20026;-71
2023/05/04 01:47:36;;;;;;;2.17;1.30;;;22.70;49.80;;;;;;5037278;28;20056;-70
2023/05/04 01:50:04;;;;;;;2.00;1.30;;;22.70;49.80;;;;;;5038055;28;20813;-69
2023/05/04 01:52:30;;;;;;;1.80;1.40;;;22.70;49.80;;;;;;5038270;28;20048;-71
2023/05/04 01:54:56;;;;;;;2.13;1.50;;;22.70;49.80;;;;;;5037096;28;20163;-71
2023/05/04 01:57:21;;;;;;;2.20;1.42;;;22.60;49.70;;;;;;5041589;28;20032;-71
2023/05/04 01:59:47;;;;;;;1.65;1.25;;;22.70;49.80;;;;;;5041820;28;20025;-70
2023/05/04 02:02:13;;;;;;;1.52;1.20;;;22.70;49.80;;;;;;5038637;28;20496;-70
2023/05/04 02:04:38;;;;;;;2.25;1.40;;;22.70;49.80;;;;;;5039486;28;20080;-71
2023/05/04 02:07:04;;;;;;;2.33;1.60;;;22.60;49.80;;;;;;5040710;28;20034;-71
2023/05/04 02:09:30;;;;;;;2.42;1.40;;;22.70;49.80;;;;;;5040191;28;20033;-71
2023/05/04 02:11:56;;;;;;;2.20;1.42;;;22.60;49.70;;;;;;5038017;28;20035;-71
2023/05/04 02:14:21;;;;;;;2.20;1.52;;;22.60;49.80;;;;;;5038586;28;20529;-71
2023/05/04 02:16:47;;;;;;;1.60;1.30;;;22.60;49.70;;;;;;5035964;28;20082;-70
2023/05/04 02:19:12;;;;;;;2.40;1.50;;;22.60;49.70;;;;;;5038976;28;20056;-71
2023/05/04 02:21:41;;;;;;;2.00;1.30;;;22.60;49.70;;;;;;5038544;28;20381;-71
2023/05/04 02:24:07;;;;;;;2.30;1.40;;;22.60;49.80;;;;;;5038285;28;20036;-71
2023/05/04 02:26:33;;;;;;;1.67;1.20;;;22.60;49.70;;;;;;5038147;28;20112;-71
2023/05/04 02:28:58;;;;;;;1.95;1.40;;;22.60;49.70;;;;;;5038063;28;20116;-71
2023/05/04 02:31:24;;;;;;;1.77;1.20;;;22.60;49.70;;;;;;5038637;28;20043;-71
2023/05/04 02:33:51;;;;;;;1.90;1.30;;;22.60;49.70;;;;;;5038885;28;20029;-71
2023/05/04 02:36:17;;;;;;;1.75;1.20;;;22.60;49.70;;;;;;5035769;28;20029;-72
2023/05/04 02:38:42;;;;;;;1.80;1.30;;;22.60;49.70;;;;;;5034488;28;20437;-71
2023/05/04 02:41:08;;;;;;;1.90;1.40;;;22.60;49.70;;;;;;5038708;28;20030;-70
2023/05/04 02:43:33;;;;;;;1.70;1.20;;;22.60;49.70;;;;;;5036737;28;20405;-70
2023/05/04 02:45:59;;;;;;;2.83;1.55;;;22.60;49.70;;;;;;5037352;28;20097;-71
2023/05/04 02:48:25;;;;;;;1.38;1.10;;;22.60;50.20;;;;;;5038120;28;20018;-71
2023/05/04 02:50:50;;;;;;;1.60;1.20;;;22.60;49.70;;;;;;5038315;28;20032;-71
2023/05/04 02:53:16;;;;;;;1.85;1.27;;;22.60;49.70;;;;;;5040431;28;20100;-70
2023/05/04 02:55:42;;;;;;;2.03;1.20;;;22.60;49.70;;;;;;5039792;28;20044;-71
2023/05/04 02:58:07;;;;;;;2.42;1.40;;;22.60;49.70;;;;;;5040278;28;20412;-72
2023/05/04 03:00:33;;;;;;;1.65;1.30;;;22.60;49.70;;;;;;5041421;28;20136;-71
2023/05/04 03:02:58;;;;;;;2.00;1.30;;;22.60;49.70;;;;;;5039748;28;20055;-71
2023/05/04 03:05:24;;;;;;;1.85;1.30;;;22.60;49.70;;;;;;5040807;28;20387;-71
2023/05/04 03:07:50;;;;;;;1.92;1.30;;;22.60;49.70;;;;;;5039703;28;20101;-71
2023/05/04 03:10:16;;;;;;;1.70;1.27;;;22.50;49.70;;;;;;5040655;28;20056;-71
2023/05/04 03:12:41;;;;;;;2.88;1.42;;;22.50;49.70;;;;;;5043025;28;20141;-71
2023/05/04 03:15:07;;;;;;;1.75;1.20;;;22.50;49.70;;;;;;5039622;28;20560;-71
2023/05/04 03:17:33;;;;;;;2.67;1.50;;;22.50;49.60;;;;;;5038253;28;20366;-71
2023/05/04 03:19:59;;;;;;;2.00;1.30;;;22.50;49.70;;;;;;5039926;28;20052;-71
2023/05/04 03:22:25;;;;;;;1.88;1.38;;;22.50;49.70;;;;;;5044035;28;20025;-71
2023/05/04 03:24:50;;;;;;;1.70;1.25;;;22.50;49.70;;;;;;5040657;28;20109;-71
2023/05/04 03:27:16;;;;;;;1.40;1.10;;;22.50;49.70;;;;;;5039451;28;20022;-71
2023/05/04 03:29:42;;;;;;;1.52;1.13;;;22.50;49.60;;;;;;5040740;28;20537;-71
2023/05/04 03:32:07;;;;;;;1.60;1.17;;;22.50;49.70;;;;;;5040363;28;20170;-70
2023/05/04 03:34:33;;;;;;;1.55;1.27;;;22.50;49.60;;;;;;5038531;28;20136;-71
2023/05/04 03:36:58;;;;;;;1.95;1.30;;;22.50;49.70;;;;;;5041004;28;20029;-71
2023/05/04 03:39:24;;;;;;;1.90;1.20;;;22.50;49.70;;;;;;5041075;28;20029;-70
2023/05/04 03:41:51;;;;;;;2.08;1.50;;;22.50;49.70;;;;;;5038605;28;20044;-71
2023/05/04 03:44:17;;;;;;;1.90;1.33;;;22.50;49.70;;;;;;5040389;28;20602;-70
2023/05/04 03:46:43;;;;;;;1.77;1.20;;;22.50;49.70;;;;;;5041971;28;20125;-70
2023/05/04 03:49:08;;;;;;;1.75;1.30;;;22.50;49.70;;;;;;5039269;28;20440;-70
2023/05/04 03:51:34;;;;;;;2.08;1.38;;;22.50;49.70;;;;;;5041653;28;20108;-71
2023/05/04 03:54:00;;;;;;;1.77;1.27;;;22.50;49.60;;;;;;5042114;28;20032;-71
2023/05/04 03:56:26;;;;;;;1.48;1.10;;;22.50;49.60;;;;;;5037626;28;20151;-71
2023/05/04 03:58:51;;;;;;;1.63;1.20;;;22.50;49.70;;;;;;5040276;28;20596;-70
2023/05/04 04:01:17;;;;;;;1.50;1.10;;;22.50;49.70;;;;;;5044709;28;20116;-70
2023/05/04 04:03:43;;;;;;;1.55;1.20;;;22.40;49.70;;;;;;5039595;28;20473;-70
2023/05/04 04:06:09;;;;;;;2.03;1.38;;;22.40;49.60;;;;;;5038241;28;20105;-71
2023/05/04 04:08:35;;;;;;;1.85;1.20;;;22.40;49.60;;;;;;5040129;28;20022;-71
2023/05/04 04:11:00;;;;;;;1.67;1.25;;;22.50;49.70;;;;;;5042135;28;20032;-71
2023/05/04 04:13:26;;;;;;;1.80;1.20;;;22.50;49.70;;;;;;5037188;28;20028;-71
2023/05/04 04:15:53;;;;;;;1.65;1.17;;;22.40;49.60;;;;;;5038933;28;20106;-71
2023/05/04 04:18:18;;;;;;;1.55;1.20;;;22.40;49.60;;;;;;5038236;28;20033;-72
2023/05/04 04:20:44;;;;;;;1.73;1.30;;;22.40;49.60;;;;;;5041362;28;20035;-71
2023/05/04 04:23:10;;;;;;;1.77;1.15;;;22.50;49.70;;;;;;5039764;28;20057;-72
2023/05/04 04:25:36;;;;;;;1.85;1.20;;;22.40;49.60;;;;;;5041463;28;20068;-71
2023/05/04 04:28:02;;;;;;;1.92;1.25;;;22.40;49.70;;;;;;5039886;28;20354;-71
2023/05/04 04:30:28;;;;;;;1.85;1.25;;;22.40;49.60;;;;;;5045390;28;20113;-71
2023/05/04 04:32:55;;;;;;;1.67;1.27;;;22.40;49.60;;;;;;5037009;28;20412;-70
2023/05/04 04:35:22;;;;;;;1.73;1.10;;;22.40;49.70;;;;;;5039098;28;20462;-70
2023/05/04 04:37:47;;;;;;;1.77;1.30;;;22.40;49.70;;;;;;5039641;28;20032;-69
2023/05/04 04:40:13;;;;;;;1.90;1.30;;;22.40;49.70;;;;;;5036708;28;20104;-70
2023/05/04 04:42:39;;;;;;;1.75;1.20;;;22.40;49.70;;;;;;5037065;28;20093;-70
2023/05/04 04:45:05;;;;;;;2.00;1.30;;;22.30;49.60;;;;;;5039452;28;20021;-70
2023/05/04 04:47:31;;;;;;;1.92;1.20;;;22.40;49.70;;;;;;5034937;28;20112;-70
2023/05/04 04:49:57;;;;;;;1.73;1.20;;;22.40;49.70;;;;;;5039397;28;20473;-70
2023/05/04 04:52:23;;;;;;;1.60;1.20;;;22.40;49.70;;;;;;5039181;28;20060;-69
2023/05/04 04:54:50;;;;;;;1.92;1.30;;;22.40;49.70;;;;;;5039412;28;20469;-70
2023/05/04 04:57:15;;;;;;;2.30;1.30;;;22.30;49.70;;;;;;5040168;28;20103;-70
2023/05/04 04:59:41;;;;;;;1.65;1.20;;;22.30;49.70;;;;;;5037512;28;20117;-70
2023/05/04 05:02:07;;;;;;;1.65;1.20;;;22.40;49.80;;;;;;5037845;28;20113;-70
2023/05/04 05:04:33;;;;;;;1.98;1.30;;;22.30;49.70;;;;;;5034669;28;20488;-70
2023/05/04 05:06:58;;;;;;;1.80;1.33;;;22.30;49.80;;;;;;5039066;28;20101;-70
2023/05/04 05:09:24;;;;;;;1.80;1.17;;;22.30;49.80;;;;;;5040983;28;20447;-69
2023/05/04 05:11:49;;;;;;;1.70;1.30;;;22.30;49.80;;;;;;5036665;28;20112;-70
2023/05/04 05:14:15;;;;;;;1.75;1.10;;;22.30;49.80;;;;;;5038836;28;20061;-70
2023/05/04 05:16:41;;;;;;;1.55;1.10;;;22.30;49.80;;;;;;5037935;28;20036;-70
2023/05/04 05:19:06;;;;;;;1.40;1.10;;;22.30;49.80;;;;;;5035589;28;20101;-69
2023/05/04 05:21:32;;;;;;;1.60;1.08;;;22.40;49.80;;;;;;5037390;28;20032;-70
2023/05/04 05:23:57;;;;;;;1.90;1.30;;;22.40;49.80;;;;;;5037881;28;20028;-69
2023/05/04 05:26:23;;;;;;;1.83;1.30;;;22.30;49.80;;;;;;5039750;28;20028;-69
2023/05/04 05:28:49;;;;;;;1.73;1.13;;;22.30;49.80;;;;;;5039170;28;20112;-69
2023/05/04 05:31:14;;;;;;;1.67;1.13;;;22.30;49.80;;;;;;5038324;28;20477;-69
2023/05/04 05:33:40;;;;;;;1.92;1.20;;;22.30;49.80;;;;;;5036461;28;20113;-69
2023/05/04 05:36:06;;;;;;;1.55;1.10;;;22.30;49.80;;;;;;5039598;28;20032;-68
2023/05/04 05:38:32;;;;;;;1.63;1.23;;;22.30;49.80;;;;;;5036453;28;20185;-69
2023/05/04 05:40:57;;;;;;;1.30;1.05;;;22.30;49.80;;;;;;5037338;28;20029;-69
2023/05/04 05:43:23;;;;;;;2.08;1.27;;;22.30;49.80;;;;;;5038575;28;20025;-69
2023/05/04 05:45:48;;;;;;;1.92;1.15;;;22.30;49.80;;;;;;5034573;28;20032;-69
2023/05/04 05:48:14;;;;;;;1.90;1.25;;;22.30;49.80;;;;;;5036343;28;20032;-69
2023/05/04 05:50:40;;;;;;;1.75;1.30;;;22.30;49.80;;;;;;5035625;28;20472;-69
2023/05/04 05:53:05;;;;;;;1.60;1.20;;;22.30;49.80;;;;;;5034087;28;20036;-69
2023/05/04 05:55:31;;;;;;;1.50;1.05;;;22.30;49.80;;;;;;5038434;28;20030;-69
2023/05/04 05:57:57;;;;;;;1.13;1.00;;;22.30;49.80;;;;;;5033985;28;20035;-69
2023/05/04 06:00:23;;;;;;;1.90;1.20;;;22.30;49.80;;;;;;5035449;28;20583;-69
2023/05/04 06:02:49;;;;;;;1.90;1.20;;;22.30;49.80;;;;;;5035247;28;20124;-69
2023/05/04 06:05:15;;;;;;;1.48;1.00;;;22.20;49.80;;;;;;5035077;28;20029;-70
2023/05/04 06:07:41;;;;;;;1.60;1.20;;;22.20;49.80;;;;;;5035000;28;20562;-70
2023/05/04 06:10:07;;;;;;;1.70;1.20;;;22.20;49.80;;;;;;5035179;28;20029;-70
2023/05/04 06:12:33;;;;;;;1.40;1.10;;;22.20;49.70;;;;;;5038239;28;20025;-70
2023/05/04 06:14:59;;;;;;;1.50;1.02;;;22.30;49.80;;;;;;5038706;28;20029;-70
2023/05/04 06:17:24;;;;;;;1.83;1.02;;;22.30;49.80;;;;;;5038634;28;20419;-69
2023/05/04 06:19:50;;;;;;;2.10;1.30;;;22.30;49.80;;;;;;5036929;28;20030;-69
2023/05/04 06:22:16;;;;;;;1.98;1.23;;;22.30;49.80;;;;;;5038619;28;20044;-70
2023/05/04 06:24:41;;;;;;;2.00;1.33;;;22.20;49.70;;;;;;5038515;28;20020;-70
2023/05/04 06:27:07;;;;;;;1.25;1.05;;;22.30;49.80;;;;;;5033236;28;20365;-70
2023/05/04 06:29:33;;;;;;;1.98;1.15;;;22.20;49.70;;;;;;5037081;28;20072;-71
2023/05/04 06:31:59;;;;;;;2.10;1.45;;;22.20;49.70;;;;;;5041668;28;20049;-70
2023/05/04 06:34:25;;;;;;;1.77;1.20;;;22.20;49.70;;;;;;5037559;28;20388;-70
2023/05/04 06:36:50;;;;;;;2.33;1.40;;;22.20;49.70;;;;;;5041599;28;20048;-70
2023/05/04 06:39:16;;;;;;;1.63;1.20;;;22.20;49.70;;;;;;5036992;28;20392;-71
2023/05/04 06:41:41;;;;;;;1.80;1.20;;;22.30;49.70;;;;;;5040652;28;20026;-70
2023/05/04 06:44:07;;;;;;;1.80;1.20;;;22.20;49.70;;;;;;5042802;28;20397;-70
2023/05/04 06:46:36;;;;;;;1.70;1.30;;;22.20;49.60;;;;;;5042497;28;20107;-70
2023/05/04 06:49:03;;;;;;;2.13;1.30;;;22.20;49.60;;;;;;5041101;28;20377;-71
2023/05/04 06:51:29;;;;;;;2.28;1.42;;;22.20;49.70;;;;;;5040575;28;20108;-71
2023/05/04 06:53:55;;;;;;;3.63;1.40;;;22.30;49.70;;;;;;5040629;28;20075;-70
2023/05/04 06:56:21;;;;;;;2.55;1.38;;;22.20;49.70;;;;;;5040593;28;20029;-71
2023/05/04 06:58:47;;;;;;;1.90;1.40;;;22.20;49.60;;;;;;5040570;28;20029;-70
2023/05/04 07:01:13;;;;;;;2.55;1.45;;;22.20;49.70;;;;;;5040060;28;20075;-70
2023/05/04 07:03:39;;;;;;;2.03;1.20;;;22.20;50.00;;;;;;5039344;28;20090;-70
2023/05/04 07:06:05;;;;;;;2.13;1.45;;;22.20;49.70;;;;;;5041181;28;20432;-70
2023/05/04 07:08:31;;;;;;;2.20;1.40;;;22.20;49.70;;;;;;5041277;28;20120;-70
2023/05/04 07:10:57;;;;;;;2.00;1.40;;;22.20;49.70;;;;;;5039785;28;20033;-70
2023/05/04 07:13:23;;;;;;;2.03;1.48;;;22.20;49.70;;;;;;5039264;28;20033;-70
2023/05/04 07:15:49;;;;;;;2.13;1.40;;;22.20;49.70;;;;;;5039043;28;20546;-71
2023/05/04 07:18:14;;;;;;;2.40;1.50;;;22.20;49.70;;;;;;5038531;28;20068;-71
2023/05/04 07:20:41;;;;;;;2.35;1.60;;;22.20;49.70;;;;;;5041182;28;20056;-71
2023/05/04 07:23:07;;;;;;;2.42;1.50;;;22.20;49.70;;;;;;5038515;28;20033;-70
2023/05/04 07:25:33;;;;;;;1.85;1.27;;;22.20;49.80;;;;;;5038598;28;20031;-70
2023/05/04 07:27:58;;;;;;;2.70;1.65;;;22.20;49.70;;;;;;5041233;28;20028;-70
2023/05/04 07:30:25;;;;;;;3.10;1.50;;;22.20;49.70;;;;;;5037677;28;20103;-71
2023/05/04 07:32:50;;;;;;;2.45;1.40;;;22.20;49.70;;;;;;5036179;28;20021;-70
2023/05/04 07:35:16;;;;;;;3.25;1.42;;;22.20;49.70;;;;;;5040865;28;20035;-70
2023/05/04 07:37:42;;;;;;;2.70;1.60;;;22.20;49.80;;;;;;5038623;28;20087;-71
2023/05/04 07:40:09;;;;;;;2.83;1.73;;;22.20;49.80;;;;;;5039603;28;20036;-71
2023/05/04 07:42:35;;;;;;;2.67;1.67;;;22.20;49.80;;;;;;5042142;28;20036;-71
2023/05/04 07:45:00;;;;;;;2.10;1.40;;;22.20;49.80;;;;;;5039850;28;20424;-71
2023/05/04 07:47:26;;;;;;;2.85;1.45;;;22.20;49.80;;;;;;5041280;28;20103;-71
2023/05/04 07:49:52;;;;;;;2.53;1.67;;;22.20;49.80;;;;;;5037859;28;20033;-70
2023/05/04 07:52:18;;;;;;;2.97;1.70;;;22.20;49.80;;;;;;5040362;28;20100;-70
2023/05/04 07:54:44;;;;;;;2.60;1.63;;;22.20;49.80;;;;;;5040479;28;20497;-70
2023/05/04 07:57:09;;;;;;;2.88;1.60;;;22.20;49.80;;;;;;5040734;28;20025;-70
2023/05/04 07:59:35;;;;;;;2.40;1.63;;;22.20;49.80;;;;;;5038276;28;20487;-71
2023/05/04 08:02:00;;;;;;;2.40;1.60;;;22.20;49.80;;;;;;5039572;28;20057;-70
2023/05/04 08:04:26;;;;;;;2.38;1.45;;;22.20;49.80;;;;;;5041847;28;20742;-70
2023/05/04 08:06:52;;;;;;;2.80;1.80;;;22.20;49.80;;;;;;5040938;28;20569;-71
2023/05/04 08:09:18;;;;;;;2.70;1.50;;;22.20;49.80;;;;;;5041120;28;20030;-71
2023/05/04 08:11:45;;;;;;;2.38;1.52;;;22.20;49.90;;;;;;5042439;28;20033;-71
2023/05/04 08:14:11;;;;;;;2.70;1.58;;;22.30;49.90;;;;;;5040247;28;20372;-70
2023/05/04 08:16:38;;;;;;;2.45;1.50;;;22.20;49.80;;;;;;5036730;28;20025;-70
2023/05/04 08:19:04;;;;;;;2.30;1.60;;;22.20;49.80;;;;;;5037517;28;20017;-70
2023/05/04 08:21:30;;;;;;;2.83;1.70;;;22.30;49.90;;;;;;5041071;28;20043;-70
2023/05/04 08:23:56;;;;;;;2.05;1.45;;;22.20;49.80;;;;;;5040306;28;20040;-70
2023/05/04 08:26:22;;;;;;;2.65;1.60;;;22.20;49.90;;;;;;5040002;28;20025;-70
2023/05/04 08:28:48;;;;;;;2.40;1.60;;;22.30;49.90;;;;;;5037853;28;20022;-70
2023/05/04 08:31:13;;;;;;;3.15;1.60;;;22.20;49.90;;;;;;5038466;28;20017;-70
2023/05/04 08:33:39;;;;;;;3.17;1.80;;;22.20;49.90;;;;;;5039240;28;20036;-71
2023/05/04 08:36:06;;;;;;;2.45;1.75;;;22.20;49.80;;;;;;5040422;28;20028;-70
2023/05/04 08:38:32;;;;;;;2.15;1.50;;;22.20;49.80;;;;;;5039861;28;20044;-71
2023/05/04 08:41:01;;;;;;;2.47;1.60;;;22.20;49.90;;;;;;5040272;28;20488;-71
2023/05/04 08:43:28;;;;;;;3.80;1.70;;;22.20;49.90;;;;;;5038033;28;20116;-70
2023/05/04 08:45:54;;;;;;;2.08;1.50;;;22.20;49.90;;;;;;5038354;28;20025;-69
2023/05/04 08:48:19;;;;;;;2.03;1.40;;;22.30;49.90;;;;;;5038714;28;20094;-71
2023/05/04 08:50:46;;;;;;;3.03;1.85;;;22.20;49.90;;;;;;5037987;28;20096;-69
2023/05/04 08:53:13;;;;;;;2.55;1.77;;;22.20;49.90;;;;;;5039998;28;20105;-70
2023/05/04 08:55:42;;;;;;;2.45;1.60;;;22.20;49.90;;;;;;5037965;28;20458;-70
2023/05/04 08:58:10;;;;;;;2.20;1.67;;;22.30;49.90;;;;;;5035619;28;20434;-70
2023/05/04 09:00:37;;;;;;;2.00;1.25;;;22.30;49.90;;;;;;5041356;28;20422;-70
2023/05/04 09:03:04;;;;;;;2.22;1.45;;;22.30;50.00;;;;;;5037454;28;20481;-70
2023/05/04 09:05:31;;;;;;;2.47;1.40;;;22.20;49.90;;;;;;5039356;28;20048;-70
2023/05/04 09:07:57;;;;;;;2.53;1.40;;;22.30;50.00;;;;;;5039807;28;20029;-70
2023/05/04 09:10:23;;;;;;;2.20;1.50;;;22.30;50.00;;;;;;5040231;28;20033;-70
2023/05/04 09:12:52;;;;;;;2.15;1.58;;;22.30;50.00;;;;;;5039179;28;20037;-70
2023/05/04 09:15:19;;;;;;;2.22;1.52;;;22.30;50.00;;;;;;5040236;28;20090;-70
2023/05/04 09:18:05;;;;;;;2.20;1.42;;;22.30;50.00;;;;;;5036246;28;20044;-70
2023/05/04 09:20:48;;;;;;;2.50;1.60;;;22.30;50.00;;;;;;5034878;28;20034;-70
2023/05/04 09:23:15;;;;;;;2.30;1.42;;;22.30;50.00;;;;;;5037419;28;20068;-71
2023/05/04 09:25:50;;;;;;;1.88;1.35;;;22.30;50.00;;;;;;5041659;28;20025;-69
2023/05/04 09:28:17;;;;;;;2.20;1.58;;;22.30;50.00;;;;;;5040878;28;20528;-70
2023/05/04 09:30:43;;;;;;;1.95;1.40;;;22.30;49.90;;;;;;5038878;28;20045;-70
2023/05/04 09:33:12;;;;;;;2.00;1.40;;;22.30;50.00;;;;;;5040218;28;20422;-70
2023/05/04 09:35:43;;;;;;;2.43;1.50;;;22.30;50.00;;;;;;5039239;28;20102;-70
2023/05/04 09:38:09;;;;;;;2.33;1.30;;;22.30;50.00;;;;;;5039500;28;20033;-70
2023/05/04 09:40:36;;;;;;;2.65;1.40;;;22.30;50.00;;;;;;5039807;28;20033;-71
2023/05/04 09:43:02;;;;;;;2.63;1.40;;;22.30;49.90;;;;;;5038741;28;20552;-71
2023/05/04 09:45:39;;;;;;;2.15;1.50;;;22.30;49.90;;;;;;5039040;28;20032;-71
2023/05/04 09:48:19;;;;;;;2.47;1.48;;;22.30;49.90;;;;;;5040283;28;20424;-71
2023/05/04 09:50:56;;;;;;;2.92;1.50;;;22.30;49.90;;;;;;5039655;28;20025;-71
2023/05/04 09:53:26;;;;;;;2.72;1.60;;;22.30;49.90;;;;;;5039971;28;20021;-70
2023/05/04 09:56:01;;;;;;;1.85;1.20;;;22.30;49.90;;;;;;5037286;28;20043;-70
2023/05/04 09:58:28;;;;;;;2.30;1.23;;;22.30;49.90;;;;;;5038015;28;20154;-71
2023/05/04 10:00:53;;;;;;;2.20;1.40;;;22.30;49.90;;;;;;5038454;28;20466;-69
2023/05/04 10:03:23;;;;;;;2.28;1.60;;;22.30;49.90;;;;;;5036993;28;20112;-70
2023/05/04 10:05:49;;;;;;;2.83;1.50;;;22.40;50.00;;;;;;5038766;28;20358;-70
2023/05/04 10:08:16;;;;;;;2.42;1.60;;;22.30;49.90;;;;;;5037591;28;20124;-70
2023/05/04 10:10:43;;;;;;;2.05;1.40;;;22.30;49.90;;;;;;5039990;28;20892;-70
2023/05/04 10:13:08;;;;;;;2.47;1.48;;;22.30;49.90;;;;;;5038749;28;20413;-71
2023/05/04 10:15:38;;;;;;;2.35;1.50;;;22.30;49.90;;;;;;5037091;28;20082;-70
2023/05/04 10:18:22;;;;;;;1.85;1.40;;;22.40;50.00;;;;;;5037474;28;20037;-70
2023/05/04 10:21:14;;;;;;;2.10;1.40;;;22.30;49.90;;;;;;5036649;28;20025;-70
2023/05/04 10:24:11;;;;;;;1.95;1.30;;;22.40;50.00;;;;;;5038123;28;20393;-70
2023/05/04 10:26:54;;;;;;;2.45;1.50;;;22.30;49.90;;;;;;5038405;28;20048;-70
2023/05/04 10:29:22;;;;;;;1.40;1.13;;;22.30;49.90;;;;;;5037340;28;20112;-70
2023/05/04 10:31:48;;;;;;;1.92;1.40;;;22.30;49.90;;;;;;5041003;28;20021;-70
2023/05/04 10:34:32;;;;;;;1.90;1.33;;;22.30;49.90;;;;;;5038838;28;20133;-70
2023/05/04 10:36:59;;;;;;;2.10;1.40;;;22.30;49.90;;;;;;5035114;28;20037;-70
2023/05/04 10:39:29;;;;;;;1.70;1.20;;;22.30;49.90;;;;;;5038551;28;20416;-70
2023/05/04 10:42:06;;;;;;;1.90;1.30;;;22.30;50.40;;;;;;5039185;28;20110;-70
2023/05/04 10:44:34;;;;;;;1.98;1.38;;;22.30;49.90;;;;;;5038011;28;20027;-70
2023/05/04 10:47:06;;;;;;;1.70;1.30;;;22.30;49.90;;;;;;5036474;28;20036;-70
2023/05/04 10:49:33;;;;;;;2.47;1.40;;;22.30;49.90;;;;;;5037208;28;20022;-70
2023/05/04 10:52:14;;;;;;;2.30;1.33;;;22.40;49.90;;;;;;5036223;28;20513;-70
2023/05/04 10:54:42;;;;;;;1.77;1.30;;;22.30;50.40;;;;;;5035796;28;20021;-70
2023/05/04 10:57:09;;;;;;;2.05;1.45;;;22.30;49.80;;;;;;5039259;28;20025;-70
2023/05/04 10:59:36;;;;;;;2.05;1.55;;;22.40;49.90;;;;;;5036676;28;20389;-70
2023/05/04 11:02:03;;;;;;;1.85;1.30;;;22.30;49.90;;;;;;5036043;28;20029;-70
2023/05/04 11:04:30;;;;;;;1.52;1.25;;;22.30;49.80;;;;;;5037403;28;20033;-70
2023/05/04 11:07:00;;;;;;;2.25;1.45;;;22.30;49.90;;;;;;5036284;28;20034;-70
2023/05/04 11:09:27;;;;;;;1.48;1.15;;;22.40;49.90;;;;;;5034669;28;20120;-71
2023/05/04 11:11:56;;;;;;;2.50;1.42;;;22.40;49.90;;;;;;5035911;28;20023;-70
2023/05/04 11:14:26;;;;;;;1.90;1.30;;;22.40;49.90;;;;;;5036369;28;20092;-72
2023/05/04 11:17:18;;;;;;;1.98;1.40;;;22.40;49.90;;;;;;5038970;28;20039;-71
2023/05/04 11:19:51;;;;;;;2.05;1.45;;;22.40;49.90;;;;;;5039207;28;20412;-70
2023/05/04 11:22:17;;;;;;;1.88;1.30;;;22.30;49.90;;;;;;5039823;28;20025;-70
2023/05/04 11:24:44;;;;;;;2.03;1.42;;;22.40;49.90;;;;;;5040984;28;20210;-71
2023/05/04 11:27:27;;;;;;;3.05;1.50;;;22.40;49.90;;;;;;5042558;28;20524;-70
2023/05/04 11:29:57;;;;;;;1.60;1.10;;;22.40;49.90;;;;;;5041174;28;20100;-72
2023/05/04 11:32:36;;;;;;;1.73;1.30;;;22.40;49.90;;;;;;5042810;28;20034;-70
2023/05/04 11:35:02;;;;;;;1.63;1.30;;;22.40;49.90;;;;;;5041737;28;20385;-70
2023/05/04 11:37:28;;;;;;;1.83;1.20;;;22.40;49.90;;;;;;5039590;28;20049;-70
2023/05/04 11:39:55;;;;;;;1.40;1.10;;;22.40;49.80;;;;;;5039294;28;20033;-70
2023/05/04 11:42:21;;;;;;;1.48;1.17;;;22.40;49.80;;;;;;5041247;28;20025;-70
2023/05/04 11:44:47;;;;;;;1.67;1.20;;;22.40;49.90;;;;;;5040366;28;20022;-72
2023/05/04 11:47:14;;;;;;;1.50;1.20;;;22.40;49.90;;;;;;5038701;28;20051;-70
2023/05/04 11:49:40;;;;;;;1.55;1.20;;;22.40;49.80;;;;;;5040916;28;20065;-72
2023/05/04 11:52:09;;;;;;;1.80;1.35;;;22.40;49.80;;;;;;5039644;28;20034;-72
2023/05/04 11:54:38;;;;;;;1.67;1.10;;;22.40;49.80;;;;;;5040514;28;20398;-71
2023/05/04 11:57:03;;;;;;;2.25;1.50;;;22.40;49.80;;;;;;5037961;28;20104;-71
2023/05/04 11:59:30;;;;;;;1.65;1.25;;;22.40;49.80;;;;;;5040792;28;20112;-71
2023/05/04 12:01:56;;;;;;;1.52;1.10;;;22.40;49.80;;;;;;5040928;28;20032;-71
2023/05/04 12:04:22;;;;;;;1.50;1.20;;;22.40;50.30;;;;;;5039893;28;20029;-71
2023/05/04 12:06:48;;;;;;;1.48;1.10;;;22.40;49.80;;;;;;5042669;28;20021;-72
2023/05/04 12:09:15;;;;;;;1.30;1.00;;;22.40;49.80;;;;;;5037923;28;20448;-71
2023/05/04 12:11:40;;;;;;;1.63;1.30;;;22.40;49.80;;;;;;5039093;28;20083;-71
2023/05/04 12:14:13;;;;;;;1.83;1.30;;;22.40;49.80;;;;;;5040784;28;20029;-71
2023/05/04 12:16:41;;;;;;;1.85;1.20;;;22.40;49.80;;;;;;5045521;28;20113;-72
2023/05/04 12:19:11;;;;;;;1.70;1.30;;;22.40;49.80;;;;;;5036746;28;20200;-71
2023/05/04 12:21:51;;;;;;;2.03;1.30;;;22.40;49.80;;;;;;5045181;28;20440;-72
2023/05/04 12:24:21;;;;;;;1.50;1.15;;;22.40;49.80;;;;;;5035256;28;20496;-71
2023/05/04 12:26:47;;;;;;;2.20;1.30;;;22.40;49.80;;;;;;5037136;28;20438;-72
2023/05/04 12:29:12;;;;;;;2.22;1.50;;;22.50;49.80;;;;;;5039805;28;20115;-70
2023/05/04 12:31:38;;;;;;;1.48;1.17;;;22.50;49.80;;;;;;5037561;28;20159;-70
2023/05/04 12:34:03;;;;;;;2.00;1.30;;;22.40;49.80;;;;;;5037255;28;20518;-69
2023/05/04 12:36:29;;;;;;;2.03;1.30;;;22.50;49.80;;;;;;5039225;28;20034;-69
2023/05/04 12:38:55;;;;;;;1.45;1.23;;;22.50;49.80;;;;;;5039783;28;20104;-70
2023/05/04 12:41:21;;;;;;;1.30;1.10;;;22.50;49.80;;;;;;5041795;28;20025;-70
2023/05/04 12:43:48;;;;;;;1.77;1.30;;;22.50;49.80;;;;;;5037648;28;20049;-70
2023/05/04 12:46:15;;;;;;;1.77;1.27;;;22.50;49.80;;;;;;5037656;28;20052;-71
2023/05/04 12:48:41;;;;;;;2.47;1.67;;;22.50;49.80;;;;;;5036650;28;20504;-69